Time;durP1;ratioP1;P1;durP2;ratioP2;P2;SDS_P1;SDS_P2;PMS_P1;PMS_P2;Temp;Humidity;BMP_temperature;BMP_pressure;BME280_temperature;BME280_humidity;BME280_pressure;Samples;Min_cycle;Max_cycle;Signal;HPM_P1;HPM_P2
2022/02/25 00:00:39;;;;;;;0.70;0.10;;;5.60;99.90;;;;;;5058582;28;20778;-48
2022/02/25 00:03:06;;;;;;;0.70;0.20;;;5.70;1.00;;;;;;5058346;28;20425;-50
2022/02/25 00:05:35;;;;;;;0.40;0.20;;;5.80;1.00;;;;;;5056910;28;20867;-48
2022/02/25 00:08:01;;;;;;;0.63;0.15;;;5.60;99.90;;;;;;5056948;28;20427;-49
2022/02/25 00:10:28;;;;;;;0.55;0.20;;;5.60;99.90;;;;;;5056424;28;20888;-46
2022/02/25 00:12:55;;;;;;;0.60;0.20;;;5.50;1.00;;;;;;5056376;28;20425;-49
2022/02/25 00:15:22;;;;;;;0.50;0.20;;;5.50;1.00;;;;;;5056814;28;20431;-48
2022/02/25 00:17:49;;;;;;;0.40;0.20;;;5.40;99.90;;;;;;5057023;28;20809;-50
2022/02/25 00:20:16;;;;;;;1.23;0.20;;;5.30;1.00;;;;;;5056710;28;20427;-47
2022/02/25 00:22:44;;;;;;;0.75;0.20;;;5.20;1.00;;;;;;5056054;28;20440;-47
2022/02/25 00:25:13;;;;;;;0.40;0.20;;;5.10;1.00;;;;;;5054770;28;20570;-50
2022/02/25 00:27:40;;;;;;;0.60;0.20;;;5.00;1.00;;;;;;5052585;28;20440;-49
2022/02/25 00:30:08;;;;;;;0.33;0.13;;;4.90;99.90;;;;;;5054329;28;20560;-52
2022/02/25 00:32:36;;;;;;;0.80;0.20;;;5.10;99.90;;;;;;5054057;28;20432;-50
2022/02/25 00:35:04;;;;;;;1.60;0.20;;;5.00;99.90;;;;;;5054479;28;20474;-48
2022/02/25 00:37:31;;;;;;;0.50;0.20;;;5.10;99.90;;;;;;5054616;28;20853;-47
2022/02/25 00:40:02;;;;;;;0.90;0.20;;;5.00;26.70;;;;;;5057585;28;20441;-49
2022/02/25 00:42:28;;;;;;;0.60;0.20;;;5.00;99.90;;;;;;5057388;28;20437;-52
2022/02/25 00:44:55;;;;;;;0.50;0.20;;;5.20;99.90;;;;;;5057904;28;20423;-50
2022/02/25 00:47:22;;;;;;;0.63;0.20;;;5.40;45.40;;;;;;5057221;28;20424;-51
2022/02/25 00:49:49;;;;;;;0.40;0.20;;;5.20;1.00;;;;;;5057584;28;20424;-46
2022/02/25 00:52:16;;;;;;;0.52;0.20;;;4.90;99.90;;;;;;5057994;28;20824;-48
2022/02/25 00:54:44;;;;;;;0.40;0.20;;;4.90;99.90;;;;;;5057265;28;20421;-47
2022/02/25 00:57:12;;;;;;;0.50;0.20;;;5.00;99.90;;;;;;5057135;28;20432;-45
2022/02/25 00:59:39;;;;;;;0.40;0.20;;;5.20;1.00;;;;;;5056900;28;20413;-48
2022/02/25 01:02:06;;;;;;;1.30;0.20;;;5.30;99.90;;;;;;5056385;28;20845;-51
2022/02/25 01:04:32;;;;;;;0.45;0.20;;;5.10;1.00;;;;;;5057477;28;20413;-50
2022/02/25 01:06:59;;;;;;;0.80;0.20;;;5.10;1.00;;;;;;5056633;28;20845;-51
2022/02/25 01:09:26;;;;;;;0.50;0.20;;;4.80;1.00;;;;;;5057072;28;20425;-52
2022/02/25 01:11:53;;;;;;;1.10;0.20;;;4.60;1.00;;;;;;5056975;28;20432;-48
2022/02/25 01:14:21;;;;;;;0.90;0.20;;;4.60;75.10;;;;;;5056906;28;20519;-52
2022/02/25 01:16:48;;;;;;;0.40;0.20;;;4.80;99.90;;;;;;5056598;28;20434;-51
2022/02/25 01:19:16;;;;;;;1.70;0.30;;;4.80;1.00;;;;;;5056393;28;20469;-46
2022/02/25 01:21:43;;;;;;;0.40;0.20;;;5.00;99.90;;;;;;5056242;28;20443;-50
2022/02/25 01:24:09;;;;;;;0.50;0.30;;;5.00;1.00;;;;;;5056490;28;20434;-46
2022/02/25 01:26:36;;;;;;;0.30;0.20;;;4.90;1.00;;;;;;5055083;28;20691;-47
2022/02/25 01:29:04;;;;;;;0.70;0.20;;;5.00;1.00;;;;;;5053010;28;20847;-50
2022/02/25 01:31:32;;;;;;;0.80;0.60;;;4.90;99.90;;;;;;5053747;28;20436;-48
2022/02/25 01:33:59;;;;;;;1.30;0.20;;;4.70;1.00;;;;;;5053885;28;20437;-52
2022/02/25 01:36:25;;;;;;;0.50;0.20;;;4.60;1.00;;;;;;5055518;28;20429;-50
2022/02/25 01:38:54;;;;;;;0.60;0.30;;;4.50;99.90;;;;;;5055034;28;20738;-50
2022/02/25 01:41:21;;;;;;;1.20;0.20;;;4.50;1.00;;;;;;5055492;28;20421;-50
2022/02/25 01:43:48;;;;;;;0.80;0.20;;;4.50;99.90;;;;;;5056518;28;20429;-48
2022/02/25 01:46:15;;;;;;;0.50;0.20;;;4.60;99.90;;;;;;5056952;28;20536;-52
2022/02/25 01:48:43;;;;;;;0.60;0.20;;;4.60;99.90;;;;;;5056750;28;20741;-48
2022/02/25 01:51:10;;;;;;;0.50;0.30;;;4.50;1.00;;;;;;5056935;28;20570;-49
2022/02/25 01:53:37;;;;;;;0.68;0.22;;;4.60;1.00;;;;;;5056703;28;20433;-46
2022/02/25 01:56:04;;;;;;;0.80;0.20;;;4.40;99.90;;;;;;5056394;28;20452;-49
2022/02/25 01:58:31;;;;;;;0.82;0.28;;;4.40;1.00;;;;;;5056368;28;20421;-48
2022/02/25 02:00:59;;;;;;;0.88;0.30;;;4.30;1.00;;;;;;5055643;28;21067;-48
2022/02/25 02:03:27;;;;;;;0.50;0.20;;;4.40;1.00;;;;;;5054869;28;20436;-48
2022/02/25 02:05:55;;;;;;;0.57;0.20;;;4.40;99.90;;;;;;5055036;28;20468;-47
2022/02/25 02:08:22;;;;;;;0.60;0.20;;;4.40;1.00;;;;;;5055082;28;20425;-49
2022/02/25 02:10:49;;;;;;;1.55;0.20;;;4.20;1.00;;;;;;5054494;28;20872;-46
2022/02/25 02:13:16;;;;;;;0.50;0.20;;;4.20;1.00;;;;;;5054326;28;20431;-51
2022/02/25 02:15:43;;;;;;;1.25;0.28;;;4.20;38.00;;;;;;5054872;28;20437;-46
2022/02/25 02:18:10;;;;;;;0.80;0.20;;;4.20;92.30;;;;;;5054891;28;20421;-51
2022/02/25 02:20:37;;;;;;;0.40;0.20;;;4.30;66.00;;;;;;5054880;28;20421;-49
2022/02/25 02:23:05;;;;;;;0.77;0.20;;;4.50;1.00;;;;;;5055527;28;20795;-51
2022/02/25 02:25:32;;;;;;;1.40;0.30;;;4.50;99.90;;;;;;5055996;28;20461;-47
2022/02/25 02:30:44;;;;;;;0.90;0.30;;;4.30;1.00;;;;;;5055197;28;20539;-48
2022/02/25 02:33:11;;;;;;;0.40;0.20;;;4.20;1.00;;;;;;5055372;28;20437;-52
2022/02/25 02:35:38;;;;;;;0.50;0.20;;;4.20;1.00;;;;;;5054759;28;20888;-52
2022/02/25 02:38:06;;;;;;;0.70;0.20;;;3.90;1.00;;;;;;5055463;28;20430;-48
2022/02/25 02:40:33;;;;;;;1.08;0.30;;;3.80;1.00;;;;;;5055273;28;20813;-51
2022/02/25 02:43:00;;;;;;;0.70;0.20;;;3.80;95.00;;;;;;5054800;28;20435;-49
2022/02/25 02:45:27;;;;;;;1.10;0.20;;;3.80;1.00;;;;;;5055098;28;20432;-47
2022/02/25 02:47:54;;;;;;;0.50;0.20;;;3.80;99.90;;;;;;5054963;28;20428;-47
2022/02/25 02:50:20;;;;;;;0.50;0.20;;;3.90;1.00;;;;;;5054977;28;20432;-50
2022/02/25 02:52:47;;;;;;;0.70;0.40;;;3.80;1.00;;;;;;5054508;28;20527;-47
2022/02/25 02:55:15;;;;;;;0.50;0.20;;;3.70;1.00;;;;;;5055211;28;20910;-48
2022/02/25 02:57:43;;;;;;;0.70;0.20;;;3.70;1.00;;;;;;5055094;28;20488;-47
2022/02/25 03:00:12;;;;;;;1.00;0.28;;;3.70;1.00;;;;;;5054002;28;20417;-49
2022/02/25 03:02:40;;;;;;;1.60;0.30;;;3.60;1.00;;;;;;5053878;28;20418;-51
2022/02/25 03:05:07;;;;;;;1.30;0.30;;;3.60;1.00;;;;;;5053617;28;20836;-48
2022/02/25 03:07:34;;;;;;;0.45;0.30;;;3.60;1.00;;;;;;5053350;28;20732;-48
2022/02/25 03:10:01;;;;;;;1.47;0.30;;;3.50;1.00;;;;;;5053686;28;20481;-50
2022/02/25 03:12:29;;;;;;;0.70;0.30;;;3.50;1.00;;;;;;5052544;28;20419;-46
2022/02/25 03:14:56;;;;;;;0.50;0.30;;;3.50;99.90;;;;;;5053674;28;20433;-47
2022/02/25 03:17:23;;;;;;;0.45;0.20;;;3.40;1.00;;;;;;5053951;28;20432;-47
2022/02/25 03:19:50;;;;;;;0.80;0.28;;;3.30;1.00;;;;;;5054600;28;20432;-49
2022/02/25 03:22:17;;;;;;;1.30;0.30;;;3.20;25.60;;;;;;5054553;28;20422;-48
2022/02/25 03:24:44;;;;;;;0.90;0.20;;;3.20;74.30;;;;;;5054788;28;20421;-49
2022/02/25 03:27:11;;;;;;;0.70;0.22;;;3.10;99.90;;;;;;5053398;28;20424;-47
2022/02/25 03:29:39;;;;;;;2.40;0.30;;;3.10;99.90;;;;;;5055783;28;20433;-49
2022/02/25 03:32:07;;;;;;;1.45;0.30;;;3.10;99.90;;;;;;5058778;28;20435;-53
2022/02/25 03:34:34;;;;;;;0.50;0.20;;;3.10;1.00;;;;;;5059097;28;20800;-50
2022/02/25 03:37:01;;;;;;;1.00;0.28;;;3.10;99.90;;;;;;5059126;28;20533;-53
2022/02/25 03:39:28;;;;;;;0.98;0.20;;;3.10;99.90;;;;;;5058463;28;20435;-49
2022/02/25 03:41:54;;;;;;;0.50;0.20;;;3.10;99.90;;;;;;5058362;28;20425;-49
2022/02/25 03:44:22;;;;;;;0.93;0.20;;;3.00;99.90;;;;;;5058363;28;20721;-49
2022/02/25 03:46:50;;;;;;;0.90;0.20;;;3.00;99.90;;;;;;5057549;28;20488;-51
2022/02/25 03:49:18;;;;;;;1.40;0.20;;;3.00;99.90;;;;;;5057962;28;20431;-51
2022/02/25 03:51:45;;;;;;;1.65;0.30;;;3.10;1.00;;;;;;5057582;28;20847;-49
2022/02/25 03:54:12;;;;;;;0.80;0.30;;;3.10;89.80;;;;;;5058114;28;20433;-47
2022/02/25 03:56:39;;;;;;;1.33;0.30;;;3.20;99.90;;;;;;5058388;28;20863;-49
2022/02/25 03:59:06;;;;;;;1.60;0.20;;;3.10;1.00;;;;;;5058737;28;20717;-46
2022/02/25 04:01:33;;;;;;;0.70;0.30;;;3.20;1.00;;;;;;5058908;28;20413;-49
2022/02/25 04:04:01;;;;;;;0.90;0.22;;;3.20;1.00;;;;;;5058559;28;20425;-50
2022/02/25 04:06:28;;;;;;;1.02;0.20;;;3.20;45.30;;;;;;5058435;28;20508;-48
2022/02/25 04:08:55;;;;;;;0.50;0.20;;;3.20;99.90;;;;;;5058101;28;20732;-47
2022/02/25 04:11:22;;;;;;;0.73;0.20;;;3.20;1.00;;;;;;5057396;28;20420;-47
2022/02/25 04:13:50;;;;;;;0.50;0.30;;;3.20;99.90;;;;;;5057565;28;20433;-45
2022/02/25 04:16:17;;;;;;;1.70;0.30;;;3.20;1.00;;;;;;5056241;28;20486;-52
2022/02/25 04:18:44;;;;;;;1.00;0.20;;;3.20;99.90;;;;;;5057903;28;20439;-52
2022/02/25 04:21:13;;;;;;;1.73;0.20;;;3.30;1.00;;;;;;5057212;28;20874;-46
2022/02/25 04:23:40;;;;;;;0.70;0.20;;;3.40;99.90;;;;;;5058056;28;20686;-47
2022/02/25 04:26:07;;;;;;;1.80;0.30;;;3.40;1.00;;;;;;5056630;28;20427;-47
2022/02/25 04:28:34;;;;;;;1.13;0.40;;;3.40;87.50;;;;;;5055587;28;20528;-48
2022/02/25 04:31:00;;;;;;;0.55;0.20;;;3.40;99.90;;;;;;5057528;28;20428;-50
2022/02/25 04:33:27;;;;;;;0.38;0.10;;;3.30;1.00;;;;;;5057148;28;20532;-50
2022/02/25 04:35:54;;;;;;;0.60;0.20;;;3.30;1.00;;;;;;5056310;28;20421;-47
2022/02/25 04:38:23;;;;;;;1.80;0.30;;;3.30;99.90;;;;;;5055962;28;20433;-49
2022/02/25 04:40:50;;;;;;;1.30;0.30;;;3.20;1.00;;;;;;5055793;28;20421;-47
2022/02/25 04:43:17;;;;;;;0.90;0.20;;;3.20;84.80;;;;;;5056791;28;20735;-50
2022/02/25 04:45:44;;;;;;;1.30;0.20;;;3.30;47.90;;;;;;5056706;28;20848;-53
2022/02/25 04:48:12;;;;;;;0.50;0.20;;;3.20;99.90;;;;;;5057238;28;20429;-48
2022/02/25 04:50:39;;;;;;;0.50;0.30;;;3.20;99.90;;;;;;5057977;28;20425;-47
2022/02/25 04:53:05;;;;;;;0.75;0.20;;;3.20;99.90;;;;;;5057483;28;20429;-50
2022/02/25 04:55:34;;;;;;;1.20;0.20;;;3.20;1.00;;;;;;5057343;28;20433;-53
2022/02/25 04:58:00;;;;;;;0.60;0.20;;;3.20;99.90;;;;;;5057366;28;20721;-48
2022/02/25 05:00:27;;;;;;;1.48;0.20;;;3.30;1.00;;;;;;5057749;28;20709;-51
2022/02/25 05:02:54;;;;;;;1.40;0.20;;;3.30;1.00;;;;;;5057174;28;20455;-50
2022/02/25 05:05:21;;;;;;;0.40;0.20;;;3.30;1.00;;;;;;5057084;28;20420;-50
2022/02/25 05:07:48;;;;;;;2.00;0.30;;;3.30;1.00;;;;;;5056996;28;20429;-47
2022/02/25 05:10:15;;;;;;;0.90;0.20;;;3.40;1.00;;;;;;5055068;28;20422;-48
2022/02/25 05:12:44;;;;;;;4.50;0.30;;;3.40;99.90;;;;;;5057098;28;20496;-50
2022/02/25 05:20:39;;;;;;;0.50;0.20;;;3.40;99.90;;;;;;5055868;28;21455;-51
2022/02/25 05:23:07;;;;;;;1.83;0.20;;;3.50;99.90;;;;;;5054749;28;20431;-45
2022/02/25 05:25:34;;;;;;;1.30;0.30;;;3.50;57.80;;;;;;5054313;28;20421;-50
2022/02/25 05:28:02;;;;;;;1.27;0.30;;;3.50;99.90;;;;;;5053053;28;20435;-48
2022/02/25 05:30:30;;;;;;;1.02;0.20;;;3.60;1.00;;;;;;5054325;28;20421;-47
2022/02/25 05:32:57;;;;;;;2.00;0.30;;;3.60;99.90;;;;;;5055099;28;20429;-45
2022/02/25 05:35:24;;;;;;;0.73;0.20;;;3.60;1.00;;;;;;5053525;28;20421;-49
2022/02/25 05:37:52;;;;;;;1.10;0.20;;;3.60;1.00;;;;;;5054651;28;20429;-46
2022/02/25 05:40:21;;;;;;;0.60;0.30;;;3.70;99.90;;;;;;5054239;28;20436;-47
2022/02/25 05:42:49;;;;;;;0.50;0.20;;;3.70;1.00;;;;;;5054985;28;20429;-51
2022/02/25 05:45:18;;;;;;;0.67;0.30;;;3.70;1.00;;;;;;5055828;28;20414;-50
2022/02/25 05:47:45;;;;;;;0.60;0.20;;;3.70;1.00;;;;;;5054534;28;20520;-52
2022/02/25 05:50:15;;;;;;;1.30;0.30;;;3.60;1.00;;;;;;5055208;28;20447;-49
2022/02/25 05:52:42;;;;;;;0.50;0.20;;;3.60;1.00;;;;;;5055595;28;20512;-47
2022/02/25 05:55:10;;;;;;;0.63;0.30;;;3.60;1.00;;;;;;5054838;28;20871;-52
2022/02/25 05:57:37;;;;;;;1.00;0.30;;;3.60;1.00;;;;;;5053728;28;20512;-48
2022/02/25 06:00:05;;;;;;;2.30;0.30;;;3.60;99.90;;;;;;5055341;28;20467;-50
2022/02/25 06:02:33;;;;;;;0.80;0.28;;;3.60;99.90;;;;;;5053656;28;20455;-50
2022/02/25 06:05:00;;;;;;;0.50;0.20;;;3.70;1.00;;;;;;5055163;28;20410;-47
2022/02/25 06:07:27;;;;;;;0.90;0.30;;;3.80;99.90;;;;;;5054793;28;20425;-49
2022/02/25 06:09:54;;;;;;;3.20;0.40;;;3.80;10.60;;;;;;5054330;28;20421;-51
2022/02/25 06:12:21;;;;;;;1.50;0.30;;;3.70;1.00;;;;;;5055047;28;20423;-48
2022/02/25 06:14:47;;;;;;;1.73;0.33;;;3.90;1.00;;;;;;5054664;28;20431;-48
2022/02/25 06:17:14;;;;;;;1.20;0.30;;;3.70;99.90;;;;;;5055324;28;20436;-51
2022/02/25 06:19:42;;;;;;;0.70;0.32;;;3.70;1.00;;;;;;5055238;28;20436;-46
2022/02/25 06:22:09;;;;;;;0.70;0.30;;;3.60;1.00;;;;;;5054548;28;20509;-46
2022/02/25 06:24:36;;;;;;;1.17;0.30;;;3.60;99.90;;;;;;5055435;28;20423;-48
2022/02/25 06:27:03;;;;;;;1.70;0.30;;;3.60;1.00;;;;;;5054595;28;20836;-46
2022/02/25 06:29:30;;;;;;;0.50;0.30;;;3.60;99.90;;;;;;5052679;28;20421;-46
2022/02/25 06:31:57;;;;;;;1.10;0.30;;;3.70;99.90;;;;;;5053853;28;20425;-47
2022/02/25 06:34:24;;;;;;;1.30;0.30;;;3.70;99.90;;;;;;5054282;28;20439;-47
2022/02/25 06:36:53;;;;;;;1.95;0.30;;;3.50;99.90;;;;;;5054183;28;20821;-52
2022/02/25 06:39:20;;;;;;;2.47;0.40;;;3.50;1.00;;;;;;5054301;28;20429;-48
2022/02/25 06:41:47;;;;;;;0.90;0.30;;;3.40;11.50;;;;;;5054214;28;20522;-49
2022/02/25 06:44:14;;;;;;;1.27;0.40;;;3.30;99.90;;;;;;5053343;28;20433;-51
2022/02/25 06:46:40;;;;;;;1.10;0.30;;;3.30;99.90;;;;;;5052569;28;20461;-50
2022/02/25 06:49:07;;;;;;;0.90;0.40;;;3.20;99.90;;;;;;5052149;28;20433;-48
2022/02/25 06:51:34;;;;;;;1.58;0.30;;;3.30;1.00;;;;;;5034104;28;20839;-46
2022/02/25 06:54:02;;;;;;;2.35;0.30;;;3.40;1.00;;;;;;5032660;28;20437;-47
2022/02/25 06:56:29;;;;;;;1.33;0.30;;;3.40;99.90;;;;;;5032618;28;20520;-47
2022/02/25 06:58:56;;;;;;;1.60;0.30;;;3.20;99.90;;;;;;5030979;28;20437;-48
2022/02/25 07:01:23;;;;;;;0.70;0.30;;;3.20;1.00;;;;;;5032742;28;20426;-45
2022/02/25 07:03:50;;;;;;;0.77;0.30;;;3.20;99.90;;;;;;5032314;28;20731;-45
2022/02/25 07:06:17;;;;;;;1.90;0.50;;;3.20;1.00;;;;;;5032325;28;20421;-49
2022/02/25 07:08:44;;;;;;;3.22;0.30;;;3.40;1.00;;;;;;5033337;28;20435;-47
2022/02/25 07:11:12;;;;;;;1.50;0.40;;;3.50;99.90;;;;;;5043854;28;20421;-45
2022/02/25 07:13:39;;;;;;;1.40;0.30;;;3.50;99.90;;;;;;5052028;28;20425;-48
2022/02/25 07:16:06;;;;;;;1.40;0.40;;;3.60;99.90;;;;;;5033596;28;20434;-48
2022/02/25 07:18:33;;;;;;;0.70;0.40;;;3.60;1.00;;;;;;5042915;28;20506;-45
2022/02/25 07:21:00;;;;;;;2.03;0.30;;;3.70;3.40;;;;;;5050719;28;20706;-49
2022/02/25 07:23:27;;;;;;;2.30;0.30;;;3.70;1.00;;;;;;5052466;28;20435;-47
2022/02/25 07:25:54;;;;;;;2.30;0.40;;;3.80;1.00;;;;;;5051035;28;20413;-47
2022/02/25 07:28:22;;;;;;;0.95;0.30;;;3.80;99.90;;;;;;5050924;28;20455;-45
2022/02/25 07:30:49;;;;;;;1.35;0.30;;;4.00;28.50;;;;;;5051707;28;20429;-46
2022/02/25 07:33:16;;;;;;;0.80;0.30;;;4.00;1.00;;;;;;5067131;28;20508;-48
2022/02/25 07:35:43;;;;;;;1.70;0.40;;;4.10;99.90;;;;;;5073983;28;20443;-47
2022/02/25 07:38:10;;;;;;;1.20;0.30;;;4.20;99.90;;;;;;5072070;28;21121;-49
2022/02/25 07:40:36;;;;;;;1.67;0.30;;;4.20;1.00;;;;;;5070352;28;20681;-49
2022/02/25 07:43:03;;;;;;;2.60;0.40;;;4.40;99.90;;;;;;5062029;28;20433;-48
2022/02/25 07:45:31;;;;;;;1.35;0.30;;;4.40;1.00;;;;;;5047784;28;20417;-46
2022/02/25 07:47:58;;;;;;;1.60;0.30;;;4.40;1.00;;;;;;5050217;28;20439;-47
2022/02/25 07:50:25;;;;;;;1.40;0.40;;;4.40;72.00;;;;;;5048402;28;20429;-47
2022/02/25 07:52:52;;;;;;;0.93;0.30;;;4.30;1.00;;;;;;5039198;28;20667;-49
2022/02/25 07:55:20;;;;;;;0.60;0.30;;;4.30;1.00;;;;;;5043104;28;20425;-52
2022/02/25 07:57:47;;;;;;;1.33;0.40;;;4.60;1.00;;;;;;5050713;28;20425;-50
2022/02/25 08:00:16;;;;;;;1.30;0.30;;;4.70;1.00;;;;;;5048804;28;20871;-46
2022/02/25 08:02:44;;;;;;;0.68;0.30;;;4.70;81.70;;;;;;5051612;28;20437;-50
2022/02/25 08:05:11;;;;;;;1.40;0.30;;;4.80;1.00;;;;;;5040225;28;20442;-51
2022/02/25 08:07:38;;;;;;;2.40;0.40;;;4.80;99.90;;;;;;5031680;28;20703;-48
2022/02/25 08:10:06;;;;;;;1.80;0.40;;;4.80;99.90;;;;;;5032069;28;20522;-47
2022/02/25 08:12:33;;;;;;;0.60;0.40;;;4.90;99.90;;;;;;5044050;28;20429;-48
2022/02/25 08:15:00;;;;;;;1.63;0.60;;;4.90;99.90;;;;;;5044839;28;20457;-51
2022/02/25 08:17:27;;;;;;;3.80;0.55;;;4.90;18.20;;;;;;5051146;28;20429;-52
2022/02/25 08:19:55;;;;;;;4.25;0.30;;;5.00;25.40;;;;;;5046118;28;20422;-53
2022/02/25 08:22:22;;;;;;;1.23;0.30;;;5.20;1.00;;;;;;5040863;28;20857;-48
2022/02/25 08:24:50;;;;;;;1.10;0.30;;;5.30;1.00;;;;;;5049794;28;20729;-49
2022/02/25 08:27:17;;;;;;;0.98;0.40;;;5.80;1.00;;;;;;5052006;28;20867;-49
2022/02/25 08:29:44;;;;;;;2.50;0.50;;;5.60;1.00;;;;;;5052419;28;20783;-47
2022/02/25 08:32:11;;;;;;;0.90;0.30;;;5.50;1.00;;;;;;5054968;28;20440;-49
2022/02/25 08:34:39;;;;;;;1.60;0.40;;;5.50;1.00;;;;;;5050241;28;20527;-51
2022/02/25 08:37:08;;;;;;;2.43;0.30;;;5.40;1.00;;;;;;5054729;28;20437;-54
2022/02/25 08:39:35;;;;;;;0.75;0.40;;;5.60;1.00;;;;;;5064509;28;20431;-54
2022/02/25 08:42:02;;;;;;;1.38;0.30;;;5.60;99.90;;;;;;5057523;28;20434;-51
2022/02/25 08:44:29;;;;;;;1.00;0.30;;;5.60;99.90;;;;;;5055743;28;20433;-53
2022/02/25 08:46:55;;;;;;;1.27;0.30;;;5.50;1.00;;;;;;5058869;28;20839;-50
2022/02/25 08:49:22;;;;;;;0.90;0.40;;;5.60;99.90;;;;;;5062750;28;20433;-51
2022/02/25 08:51:49;;;;;;;0.75;0.30;;;5.90;1.00;;;;;;5034766;28;20834;-54
2022/02/25 08:54:18;;;;;;;0.80;0.30;;;6.00;99.90;;;;;;5049867;28;20447;-54
2022/02/25 08:56:45;;;;;;;1.30;0.40;;;5.90;99.90;;;;;;5054665;28;20741;-54
2022/02/25 08:59:12;;;;;;;1.75;0.40;;;5.90;99.90;;;;;;5053849;28;20437;-56
2022/02/25 09:01:39;;;;;;;2.13;0.40;;;5.90;99.90;;;;;;5054071;28;20433;-55
2022/02/25 09:04:06;;;;;;;4.00;0.40;;;5.90;99.90;;;;;;5051103;28;20441;-56
2022/02/25 09:06:36;;;;;;;0.85;0.30;;;5.90;99.90;;;;;;5054468;28;20853;-56
2022/02/25 09:09:05;;;;;;;2.30;0.40;;;5.90;99.90;;;;;;5047685;28;20492;-57
2022/02/25 09:11:33;;;;;;;0.63;0.30;;;5.90;99.90;;;;;;5053283;28;20742;-55
2022/02/25 09:14:00;;;;;;;1.15;0.30;;;5.80;99.90;;;;;;5053142;28;20837;-56
2022/02/25 09:16:27;;;;;;;0.98;0.40;;;5.80;99.90;;;;;;5045348;28;20441;-54
2022/02/25 09:18:55;;;;;;;0.75;0.30;;;5.80;99.90;;;;;;5053566;28;20433;-55
2022/02/25 09:21:22;;;;;;;2.80;0.60;;;5.80;99.90;;;;;;5052018;28;20490;-55
2022/02/25 09:23:50;;;;;;;1.40;0.30;;;5.80;84.80;;;;;;5046172;28;20440;-56
2022/02/25 09:26:17;;;;;;;2.40;0.30;;;5.80;99.90;;;;;;5052173;28;20436;-56
2022/02/25 09:28:46;;;;;;;1.70;0.40;;;5.90;79.90;;;;;;5049699;28;20433;-57
2022/02/25 09:31:13;;;;;;;1.60;0.20;;;6.20;96.90;;;;;;5051205;28;20903;-56
2022/02/25 09:33:40;;;;;;;0.70;0.30;;;6.20;1.00;;;;;;5052902;28;20433;-57
2022/02/25 09:36:08;;;;;;;1.20;0.30;;;6.10;1.00;;;;;;5052344;28;20440;-55
2022/02/25 09:38:36;;;;;;;1.25;0.38;;;6.10;1.00;;;;;;5053710;28;20433;-56
2022/02/25 09:41:05;;;;;;;3.03;0.40;;;6.30;17.50;;;;;;5052925;28;20432;-55
2022/02/25 09:43:32;;;;;;;1.55;0.30;;;6.40;1.00;;;;;;5053967;28;20551;-57
2022/02/25 09:46:01;;;;;;;0.80;0.30;;;6.60;1.00;;;;;;5054279;28;20418;-56
2022/02/25 09:48:28;;;;;;;1.23;0.30;;;6.60;1.00;;;;;;5052921;28;20429;-57
2022/02/25 09:50:55;;;;;;;0.70;0.30;;;6.80;1.00;;;;;;5051402;28;20433;-57
2022/02/25 09:53:22;;;;;;;1.20;0.30;;;7.00;1.00;;;;;;5051498;28;20437;-57
2022/02/25 09:55:49;;;;;;;1.30;0.20;;;7.40;1.00;;;;;;5047924;28;20717;-57
2022/02/25 09:58:16;;;;;;;1.58;0.20;;;7.20;1.00;;;;;;5033176;28;20435;-58
2022/02/25 10:00:43;;;;;;;1.40;0.30;;;7.10;1.00;;;;;;5039770;28;20549;-57
2022/02/25 10:03:14;;;;;;;3.17;1.15;;;7.30;1.00;;;;;;5045790;28;20841;-57
2022/02/25 10:05:42;;;;;;;2.40;0.60;;;7.30;1.00;;;;;;5051990;28;20415;-57
2022/02/25 10:08:14;;;;;;;3.80;0.40;;;7.20;1.00;;;;;;5052250;28;20433;-58
2022/02/25 10:10:47;;;;;;;2.30;0.60;;;7.30;1.00;;;;;;5040057;28;20466;-55
2022/02/25 10:13:17;;;;;;;2.30;0.27;;;7.40;1.00;;;;;;5048177;28;20426;-57
2022/02/25 10:15:45;;;;;;;0.98;0.30;;;7.60;1.00;;;;;;5045434;28;20530;-58
2022/02/25 10:18:15;;;;;;;1.60;0.30;;;7.80;1.00;;;;;;5050687;28;20773;-56
2022/02/25 10:20:43;;;;;;;0.90;0.22;;;8.00;1.00;;;;;;5047068;28;20863;-56
2022/02/25 10:23:26;;;;;;;1.50;0.20;;;7.90;1.00;;;;;;5034448;28;20435;-55
2022/02/25 10:25:54;;;;;;;1.65;0.30;;;7.70;1.00;;;;;;5035229;28;20485;-58
2022/02/25 10:28:32;;;;;;;1.70;0.30;;;7.70;1.00;;;;;;5041254;28;20445;-58
2022/02/25 10:31:22;;;;;;;1.30;0.28;;;7.70;1.00;;;;;;5052540;28;20821;-57
2022/02/25 10:34:04;;;;;;;1.20;0.30;;;7.80;1.00;;;;;;5018765;28;20922;-58
2022/02/25 10:36:44;;;;;;;0.90;0.20;;;7.90;1.00;;;;;;5027772;28;20730;-57
2022/02/25 10:39:12;;;;;;;0.90;0.20;;;7.90;1.00;;;;;;5022370;28;21090;-58
2022/02/25 10:41:39;;;;;;;0.70;0.30;;;7.80;1.00;;;;;;5022223;28;20429;-59
2022/02/25 10:44:06;;;;;;;0.80;0.20;;;8.00;1.00;;;;;;5012217;28;20441;-57
2022/02/25 10:46:33;;;;;;;1.60;0.30;;;8.10;1.00;;;;;;5012034;28;20933;-58
2022/02/25 10:49:11;;;;;;;1.00;0.30;;;8.10;1.00;;;;;;5024782;28;20900;-56
2022/02/25 10:51:38;;;;;;;1.27;0.30;;;8.20;1.00;;;;;;5028955;28;20461;-57
2022/02/25 10:54:05;;;;;;;0.60;0.20;;;8.50;1.00;;;;;;5027022;28;20545;-58
2022/02/25 10:56:47;;;;;;;1.00;0.30;;;8.80;1.00;;;;;;5031737;28;20443;-58
2022/02/25 10:59:14;;;;;;;2.28;0.30;;;8.80;1.00;;;;;;5016194;28;20436;-58
2022/02/25 11:01:42;;;;;;;0.40;0.20;;;9.00;1.00;;;;;;5031221;28;20427;-58
2022/02/25 11:04:13;;;;;;;1.50;0.30;;;8.50;1.00;;;;;;5029699;28;20520;-57
2022/02/25 11:06:41;;;;;;;0.60;0.30;;;8.60;1.00;;;;;;5032414;28;20480;-57
2022/02/25 11:09:08;;;;;;;0.80;0.20;;;9.00;1.00;;;;;;5030612;28;20438;-58
2022/02/25 11:11:36;;;;;;;0.40;0.20;;;9.50;1.00;;;;;;5030487;28;20427;-58
2022/02/25 11:14:05;;;;;;;1.30;0.20;;;10.20;1.00;;;;;;5025300;28;20463;-58
2022/02/25 11:16:33;;;;;;;1.00;0.22;;;10.20;1.00;;;;;;5030299;28;20758;-58
2022/02/25 11:19:02;;;;;;;0.90;0.30;;;10.00;1.00;;;;;;5024615;28;20869;-59
2022/02/25 11:21:31;;;;;;;1.30;0.30;;;9.90;1.00;;;;;;5023508;28;20854;-59
2022/02/25 11:24:00;;;;;;;1.60;0.30;;;9.90;1.00;;;;;;5022423;28;20450;-58
2022/02/25 11:26:26;;;;;;;1.60;0.30;;;9.80;1.00;;;;;;5020173;28;20724;-58
2022/02/25 11:28:59;;;;;;;0.60;0.20;;;9.40;1.00;;;;;;5029897;28;20754;-58
2022/02/25 11:31:30;;;;;;;1.88;0.20;;;9.50;1.00;;;;;;5031132;28;20493;-59
2022/02/25 11:33:57;;;;;;;0.80;0.30;;;9.80;1.00;;;;;;5051605;28;20515;-58
2022/02/25 11:36:44;;;;;;;0.60;0.20;;;9.70;1.00;;;;;;5051037;28;20524;-58
2022/02/25 11:39:30;;;;;;;1.00;0.20;;;9.50;1.00;;;;;;5032480;28;20437;-59
2022/02/25 11:42:00;;;;;;;1.00;0.30;;;9.30;1.00;;;;;;5046753;28;20897;-59
2022/02/25 11:44:28;;;;;;;0.50;0.20;;;9.60;1.00;;;;;;5037753;28;21035;-58
2022/02/25 11:46:56;;;;;;;1.05;0.28;;;9.90;1.00;;;;;;5044009;28;20452;-59
2022/02/25 11:49:24;;;;;;;2.00;0.30;;;9.30;1.00;;;;;;5047411;28;20444;-60
2022/02/25 11:52:01;;;;;;;2.00;0.20;;;9.00;1.00;;;;;;5048061;28;20439;-60
2022/02/25 11:54:34;;;;;;;2.20;0.20;;;8.80;1.00;;;;;;5052770;28;20522;-60
2022/02/25 11:57:24;;;;;;;0.70;0.20;;;8.90;1.00;;;;;;5044837;28;20448;-60
2022/02/25 12:00:27;;;;;;;1.13;0.20;;;9.10;1.00;;;;;;5050300;28;20818;-60
2022/02/25 12:03:11;;;;;;;1.60;0.40;;;8.80;1.00;;;;;;5043457;28;20468;-60
2022/02/25 12:05:43;;;;;;;0.60;0.30;;;9.20;1.00;;;;;;5050050;28;20444;-59
2022/02/25 12:08:25;;;;;;;1.85;0.30;;;9.50;1.00;;;;;;5043475;28;20431;-59
2022/02/25 12:10:53;;;;;;;0.60;0.30;;;9.90;1.00;;;;;;5044807;28;20428;-59
2022/02/25 12:13:28;;;;;;;0.60;0.20;;;10.20;1.00;;;;;;5049348;28;20427;-59
2022/02/25 12:15:55;;;;;;;5.40;1.60;;;9.70;1.00;;;;;;5054924;28;20437;-59
2022/02/25 12:18:38;;;;;;;2.50;0.40;;;10.10;1.00;;;;;;5052836;28;20883;-58
2022/02/25 12:21:09;;;;;;;0.60;0.20;;;9.70;1.00;;;;;;5051316;28;20938;-59
2022/02/25 12:23:43;;;;;;;0.90;0.40;;;9.70;1.00;;;;;;5052566;28;20919;-58
2022/02/25 12:26:10;;;;;;;0.90;0.30;;;9.80;1.00;;;;;;5050696;28;20428;-58
2022/02/25 12:29:13;;;;;;;1.70;0.30;;;9.40;1.00;;;;;;5050928;28;20498;-58
2022/02/25 12:31:44;;;;;;;1.40;0.30;;;8.90;1.00;;;;;;5044040;28;20453;-58
2022/02/25 12:34:20;;;;;;;1.65;0.25;;;8.80;1.00;;;;;;5053092;28;20429;-58
2022/02/25 12:36:49;;;;;;;1.30;0.30;;;8.70;1.00;;;;;;5054376;28;20436;-58
2022/02/25 12:39:31;;;;;;;0.90;0.30;;;8.60;1.00;;;;;;5053186;28;20747;-58
2022/02/25 12:42:00;;;;;;;0.80;0.30;;;8.70;1.00;;;;;;5052934;28;20438;-58
2022/02/25 12:44:28;;;;;;;0.50;0.30;;;8.60;1.00;;;;;;5053626;28;20868;-58
2022/02/25 12:46:57;;;;;;;1.00;0.30;;;8.90;1.00;;;;;;5052737;28;20710;-59
2022/02/25 12:49:27;;;;;;;4.30;0.70;;;9.30;1.00;;;;;;5050748;28;20437;-59
2022/02/25 12:51:55;;;;;;;1.40;0.30;;;9.60;1.00;;;;;;5052639;28;20421;-59
2022/02/25 12:54:26;;;;;;;0.50;0.20;;;9.60;1.00;;;;;;5039004;28;20524;-60
2022/02/25 12:56:55;;;;;;;0.50;0.20;;;9.30;1.00;;;;;;5043986;28;20437;-59
2022/02/25 12:59:31;;;;;;;0.50;0.20;;;9.10;1.00;;;;;;5050513;28;20436;-59
2022/02/25 13:01:59;;;;;;;3.47;0.30;;;8.80;1.00;;;;;;5041278;28;20839;-59
2022/02/25 13:04:27;;;;;;;1.90;0.30;;;8.50;1.00;;;;;;5037683;28;20457;-59
2022/02/25 13:06:56;;;;;;;0.63;0.28;;;8.50;1.00;;;;;;5041000;28;20427;-59
2022/02/25 13:09:26;;;;;;;1.83;0.30;;;8.70;1.00;;;;;;5035647;28;20431;-59
2022/02/25 13:11:56;;;;;;;1.93;0.20;;;8.50;1.00;;;;;;5034754;28;20434;-58
2022/02/25 13:14:25;;;;;;;0.90;0.30;;;8.50;1.00;;;;;;5034707;28;20435;-56
2022/02/25 13:17:07;;;;;;;0.60;0.20;;;8.50;1.00;;;;;;5031385;28;20434;-58